Hensler, North Dakota
Current Conditions -  °F | °C
As of 4:35 PM on Monday 24 Nov 2014 (Local Time) from KHZE Reporting Station
Clear Clear  
Wind Chill: 17°   Ceiling: Unl
Heat Index: 25°   Visibility: 10mi
Dew Point: 12°   Wind: 7mph
Humidity: 59%   Direction: 280°W
Pressure: 29.99"   Gusts: NA
Location:  47.1146°N, 101.343°W
Report Text: KHZE 242235Z AUTO 28006KT 10SM CLR M04/M11 A2999 RMK AO2
Loading
Personal Weather Stations






























Interactive Weather Map New forecast layout! Learn more

10-Day Weather Forecast

Advertisements
Track Severe Weather on mobile